createdAt,value
2019-05-16T00:01:33.164Z,102268.86
2019-05-16T00:04:05.398Z,102274.84
2019-05-16T00:06:40.303Z,102268.62
2019-05-16T00:09:12.562Z,102264.66
2019-05-16T00:11:44.776Z,102263.67
2019-05-16T00:14:18.821Z,102260.52
2019-05-16T00:16:50.924Z,102257.84
2019-05-16T00:19:23.227Z,102254.59
2019-05-16T00:21:55.491Z,102256.88
2019-05-16T00:24:29.137Z,102248.45
2019-05-16T00:27:01.651Z,102251.77
2019-05-16T00:29:33.932Z,102251.31
2019-05-16T00:32:08.421Z,102254.24
2019-05-16T00:34:42.294Z,102250.09
2019-05-16T00:37:14.565Z,102246.78
2019-05-16T00:39:48.225Z,102243.27
2019-05-16T00:42:20.611Z,102244.59
2019-05-16T00:44:52.805Z,102240.88
2019-05-16T00:47:25.048Z,102239.02
2019-05-16T00:49:58.178Z,102238.84
2019-05-16T00:52:30.813Z,102241.64
2019-05-16T00:55:03.026Z,102242.45
2019-05-16T00:57:35.248Z,102243.11
2019-05-16T01:00:08.243Z,102239.55
2019-05-16T01:02:40.650Z,102237.19
2019-05-16T01:05:14.454Z,102241.75
2019-05-16T01:07:48.059Z,102239.40
2019-05-16T01:10:21.523Z,102236.64
2019-05-16T01:12:53.741Z,102236.89
2019-05-16T01:15:26.215Z,102237.55
2019-05-16T01:17:58.903Z,102237.61
2019-05-16T01:20:31.292Z,102241.20
2019-05-16T01:23:03.531Z,102239.80
2019-05-16T01:25:35.759Z,102237.44
2019-05-16T01:28:08.880Z,102237.63
2019-05-16T01:30:41.425Z,102232.56
2019-05-16T01:33:13.628Z,102234.95
2019-05-16T01:35:47.887Z,102231.75
2019-05-16T01:38:20.112Z,102232.59
2019-05-16T01:40:52.346Z,102227.54
2019-05-16T01:43:24.594Z,102217.12
2019-05-16T01:45:57.833Z,102221.67
2019-05-16T01:48:30.160Z,102227.19
2019-05-16T01:51:02.474Z,102224.02
2019-05-16T01:53:34.747Z,102226.56
2019-05-16T01:56:08.546Z,102224.66
2019-05-16T01:58:40.950Z,102223.14
2019-05-16T02:01:15.865Z,102219.23
2019-05-16T02:03:48.140Z,102220.03
2019-05-16T02:06:20.514Z,102222.48
2019-05-16T02:08:52.745Z,102221.42
2019-05-16T02:11:24.961Z,102221.66
2019-05-16T02:13:58.595Z,102213.75
2019-05-16T02:16:31.140Z,102220.09
2019-05-16T02:19:03.358Z,102217.89
2019-05-16T02:24:08.865Z,102216.19
2019-05-16T02:26:41.320Z,102217.75
2019-05-16T02:29:15.606Z,102210.25
2019-05-16T02:31:51.089Z,102216.29
2019-05-16T02:34:22.112Z,102210.02
2019-05-16T02:37:14.758Z,102207.72
2019-05-16T02:39:30.569Z,102213.16
2019-05-16T02:42:02.203Z,102208.20
2019-05-16T02:44:34.452Z,102207.97
2019-05-16T02:47:06.635Z,102206.31
2019-05-16T02:49:41.835Z,102206.48
2019-05-16T02:52:13.990Z,102202.41
2019-05-16T02:54:51.556Z,102198.75
2019-05-16T02:57:22.422Z,102199.95
2019-05-16T02:59:54.618Z,102197.18
2019-05-16T03:02:26.831Z,102194.25
2019-05-16T03:05:00.915Z,102197.38
2019-05-16T03:07:41.460Z,102197.12
2019-05-16T03:10:07.313Z,102187.28
2019-05-16T03:12:41.121Z,102179.20
2019-05-16T03:15:13.508Z,102180.67
2019-05-16T03:17:45.733Z,102182.27
2019-05-16T03:20:21.035Z,102174.80
2019-05-16T03:22:52.134Z,102172.03
2019-05-16T03:25:24.452Z,102172.26
2019-05-16T03:27:56.674Z,102164.36
2019-05-16T03:30:34.197Z,102163.79
2019-05-16T03:33:05.584Z,102163.05
2019-05-16T03:35:37.946Z,102154.52
2019-05-16T03:38:12.227Z,102160.73
2019-05-16T03:40:44.111Z,102156.83
2019-05-16T03:43:16.484Z,102156.26
2019-05-16T03:45:52.173Z,102152.25
2019-05-16T03:48:22.650Z,102152.66
2019-05-16T03:50:54.933Z,102157.28
2019-05-16T03:53:27.146Z,102159.62
2019-05-16T03:56:01.801Z,102159.34
2019-05-16T03:58:33.312Z,102156.58
2019-05-16T04:01:05.516Z,102151.14
2019-05-16T04:03:40.961Z,102147.87
2019-05-16T04:06:12.259Z,102149.39
2019-05-16T04:08:44.617Z,102150.42
2019-05-16T04:11:22.115Z,102146.20
2019-05-16T04:13:51.050Z,102144.11
2019-05-16T04:16:23.435Z,102145.81
2019-05-16T04:18:55.652Z,102145.81
2019-05-16T04:21:31.930Z,102145.81
2019-05-16T04:24:01.815Z,102143.37
2019-05-16T04:26:36.064Z,102144.56
2019-05-16T04:29:11.800Z,102148.29
2019-05-16T04:31:44.308Z,102155.41
2019-05-16T04:34:16.559Z,102148.63
2019-05-16T04:36:51.394Z,102144.66
2019-05-16T04:39:22.704Z,102143.66
2019-05-16T04:41:54.934Z,102144.27
2019-05-16T04:44:30.648Z,102149.29
2019-05-16T04:47:01.748Z,102149.52
2019-05-16T04:49:35.341Z,102154.42
2019-05-16T04:52:07.662Z,102152.63
2019-05-16T04:54:41.882Z,102162.51
2019-05-16T04:57:13.692Z,102152.63
2019-05-16T04:59:45.955Z,102158.89
2019-05-16T05:02:21.083Z,102156.88
2019-05-16T05:04:52.148Z,102153.66
2019-05-16T05:07:24.446Z,102149.31
2019-05-16T05:09:56.718Z,102155.86
2019-05-16T05:12:31.538Z,102156.59
2019-05-16T05:15:02.948Z,102159.16
2019-05-16T05:17:35.262Z,102153.46
2019-05-16T05:20:10.427Z,102152.89
2019-05-16T05:22:41.536Z,102149.69
2019-05-16T05:25:13.826Z,102148.72
2019-05-16T05:27:47.020Z,102153.06
2019-05-16T05:30:21.131Z,102152.61
2019-05-16T05:32:53.351Z,102146.67
2019-05-16T05:35:25.936Z,102140.83
2019-05-16T05:38:00.348Z,102138.94
2019-05-16T05:40:32.176Z,102143.59
2019-05-16T05:43:04.439Z,102132.95
2019-05-16T05:45:36.681Z,102133.61
2019-05-16T05:48:10.696Z,102127.02
2019-05-16T05:50:43.193Z,102127.64
2019-05-16T05:53:15.638Z,102130.40
2019-05-16T05:55:50.642Z,102134.70
2019-05-16T05:58:21.971Z,102135.20
2019-05-16T06:00:54.334Z,102134.09
2019-05-16T06:03:26.637Z,102127.23
2019-05-16T06:06:01.053Z,102135.02
2019-05-16T06:08:33.042Z,102137.32
2019-05-16T06:11:05.289Z,102139.63
2019-05-16T06:13:40.501Z,102131.05
2019-05-16T06:16:12.740Z,102128.37
2019-05-16T06:18:45.009Z,102128.48
2019-05-16T06:21:20.087Z,102118.56
2019-05-16T06:23:51.480Z,102121.91
2019-05-16T06:26:23.703Z,102120.22
2019-05-16T06:28:55.934Z,102124.85
2019-05-16T06:31:31.092Z,102125.55
2019-05-16T06:34:08.173Z,102124.39
2019-05-16T06:36:36.152Z,102114.67
2019-05-16T06:39:11.204Z,102105.81
2019-05-16T06:41:42.421Z,102102.39
2019-05-16T06:44:14.661Z,102099.58
2019-05-16T06:47:03.587Z,102103.28
2019-05-16T06:49:21.056Z,102107.11
2019-05-16T06:51:53.640Z,102108.55
2019-05-16T06:54:25.958Z,102104.76
2019-05-16T06:57:00.196Z,102102.41
2019-05-16T06:59:32.169Z,102099.22
2019-05-16T07:02:04.394Z,102098.23
2019-05-16T07:04:36.731Z,102090.55
2019-05-16T07:07:11.934Z,102092.76
2019-05-16T07:09:57.322Z,102097.32
2019-05-16T07:12:20.200Z,102086.08
2019-05-16T07:14:52.018Z,102084.35
2019-05-16T07:17:24.230Z,102080.91
2019-05-16T07:19:56.489Z,102071.33
2019-05-16T07:22:31.166Z,102066.86
2019-05-16T07:25:02.654Z,102063.47
2019-05-16T07:27:35.210Z,102069.82
2019-05-16T07:30:07.430Z,102063.61
2019-05-16T07:32:40.434Z,102065.08
2019-05-16T07:35:12.950Z,102061.63
2019-05-16T07:37:45.220Z,102062.55
2019-05-16T07:40:23.646Z,102057.59
2019-05-16T07:42:51.427Z,102053.70
2019-05-16T07:45:24.711Z,102052.05
2019-05-16T07:48:00.107Z,102051.81
2019-05-16T07:50:32.439Z,102043.55
2019-05-16T07:53:04.717Z,102045.70
2019-05-16T07:55:37.014Z,102039.80
2019-05-16T07:58:10.249Z,102037.21
2019-05-16T08:00:52.391Z,102036.70
2019-05-16T08:03:19.759Z,102037.13
2019-05-16T08:05:51.825Z,102028.01
2019-05-16T08:08:24.739Z,102026.87
2019-05-16T08:10:57.286Z,102028.70
2019-05-16T08:13:30.866Z,102039.31
2019-05-16T08:16:03.311Z,102025.30
2019-05-16T08:18:35.527Z,102019.38
2019-05-16T08:21:10.655Z,102016.46
2019-05-16T08:23:41.822Z,102017.66
2019-05-16T08:26:14.115Z,102008.98
2019-05-16T08:28:46.335Z,102013.12
2019-05-16T08:31:21.389Z,102017.50
2019-05-16T08:33:54.963Z,102017.55
2019-05-16T08:36:26.512Z,102009.73
2019-05-16T08:39:01.148Z,102008.97
2019-05-16T08:41:32.823Z,102005.03
2019-05-16T08:44:05.027Z,102003.84
2019-05-16T08:46:41.155Z,102001.21
2019-05-16T08:49:12.548Z,101998.86
2019-05-16T08:51:45.856Z,101999.64
2019-05-16T08:54:20.705Z,102003.64
2019-05-16T08:56:52.021Z,101994.12
2019-05-16T08:59:24.269Z,102005.84
2019-05-16T09:01:58.185Z,101998.38
2019-05-16T09:07:04.954Z,101999.41
2019-05-16T09:09:44.196Z,101995.24
2019-05-16T09:10:30.922Z,102000.86
2019-05-16T09:12:12.235Z,101993.52
2019-05-16T09:14:47.299Z,101985.45
2019-05-16T09:17:18.370Z,101975.63
2019-05-16T09:19:51.734Z,101976.66
2019-05-16T09:22:24.098Z,101972.45
2019-05-16T09:24:57.620Z,101968.50
2019-05-16T09:27:30.290Z,101974.78
2019-05-16T09:30:02.502Z,101965.23
2019-05-16T09:32:36.982Z,101960.63
2019-05-16T09:35:08.891Z,101969.96
2019-05-16T09:37:41.176Z,101968.41
2019-05-16T09:40:13.539Z,101958.38
2019-05-16T09:42:47.357Z,101956.59
2019-05-16T09:45:19.915Z,101950.25
2019-05-16T09:47:52.201Z,101945.88
2019-05-16T09:50:26.482Z,101937.19
2019-05-16T09:52:58.382Z,101933.84
2019-05-16T09:55:30.632Z,101931.07
2019-05-16T09:58:02.877Z,101928.44
2019-05-16T10:00:37.459Z,101932.64
2019-05-16T10:03:09.288Z,101933.42
2019-05-16T10:05:42.808Z,101934.27
2019-05-16T10:08:17.070Z,101923.67
2019-05-16T10:10:48.982Z,101920.61
2019-05-16T10:13:21.246Z,101918.91
2019-05-16T10:15:53.453Z,101911.58
2019-05-16T10:18:27.778Z,101907.92
2019-05-16T10:21:00.842Z,101917.55
2019-05-16T10:23:33.166Z,101913.63
2019-05-16T10:26:05.378Z,101919.75
2019-05-16T10:28:38.618Z,101912.89
2019-05-16T10:31:11.018Z,101912.08
2019-05-16T10:33:43.236Z,101905.09
2019-05-16T10:36:17.354Z,101905.62
2019-05-16T10:38:49.492Z,101903.97
2019-05-16T10:41:21.813Z,101897.30
2019-05-16T10:43:54.031Z,101900.33
2019-05-16T10:46:26.975Z,101897.63
2019-05-16T10:48:59.368Z,101893.44
2019-05-16T10:51:31.729Z,101890.31
2019-05-16T10:54:13.107Z,101888.67
2019-05-16T10:56:40.357Z,101885.08
2019-05-16T10:59:51.222Z,101879.03
2019-05-16T11:01:47.241Z,101875.25
2019-05-16T11:04:29.213Z,101872.75
2019-05-16T11:06:57.210Z,101871.69
2019-05-16T11:09:29.306Z,101865.57
2019-05-16T11:12:01.542Z,101854.89
2019-05-16T11:14:33.778Z,101861.66
2019-05-16T11:17:07.349Z,101853.77
2019-05-16T11:19:40.372Z,101849.31
2019-05-16T11:22:12.699Z,101849.98
2019-05-16T11:24:47.137Z,101853.66
2019-05-16T11:27:19.675Z,101853.45
2019-05-16T11:29:52.132Z,101848.35
2019-05-16T11:32:27.016Z,101834.80
2019-05-16T11:34:58.685Z,101845.42
2019-05-16T11:37:31.444Z,101830.83
2019-05-16T11:40:03.716Z,101830.83
2019-05-16T11:42:37.810Z,101833.05
2019-05-16T11:45:10.769Z,101829.03
2019-05-16T11:47:43.404Z,101818.03
2019-05-16T11:50:17.602Z,101823.19
2019-05-16T11:52:49.600Z,101818.80
2019-05-16T11:55:21.824Z,101817.38
2019-05-16T11:57:56.750Z,101817.13
2019-05-16T12:00:30.770Z,101820.34
2019-05-16T12:03:03.256Z,101813.95
2019-05-16T12:05:37.343Z,101818.47
2019-05-16T12:08:09.426Z,101815.77
2019-05-16T12:13:25.405Z,101796.75
2019-05-16T12:15:49.012Z,101796.77
2019-05-16T12:18:22.307Z,101798.86
2019-05-16T12:20:56.418Z,101794.91
2019-05-16T12:23:28.462Z,101798.38
2019-05-16T12:26:00.721Z,101789.45
2019-05-16T12:28:33.127Z,101787.27
2019-05-16T12:31:07.143Z,101789.14
2019-05-16T12:33:39.430Z,101776.58
2019-05-16T12:36:12.464Z,101781.83
2019-05-16T12:38:46.758Z,101772.01
2019-05-16T12:41:19.264Z,101773.88
2019-05-16T12:43:53.629Z,101765.50
2019-05-16T12:46:27.184Z,101763.72
2019-05-16T12:49:00.227Z,101769.86
2019-05-16T12:51:33.047Z,101766.33
2019-05-16T12:54:07.545Z,101760.25
2019-05-16T12:56:40.395Z,101759.54
2019-05-16T12:59:20.370Z,101763.13
2019-05-16T13:01:48.301Z,101756.14
2019-05-16T13:04:21.297Z,101744.72
2019-05-16T13:06:54.271Z,101748.56
2019-05-16T13:09:27.451Z,101742.41
2019-05-16T13:12:00.307Z,101729.07
2019-05-16T13:14:33.156Z,101725.53
2019-05-16T13:17:07.273Z,101728.59
2019-05-16T13:19:44.203Z,101721.30
2019-05-16T13:22:17.209Z,101721.34
2019-05-16T13:24:51.053Z,101696.00
2019-05-16T13:27:23.888Z,101707.46
2019-05-16T13:29:58.109Z,101700.80
2019-05-16T13:32:31.211Z,101698.83
2019-05-16T13:35:04.020Z,101691.34
2019-05-16T13:37:36.953Z,101705.77
2019-05-16T13:40:09.827Z,101687.53
2019-05-16T13:42:42.660Z,101694.09
2019-05-16T13:45:17.693Z,101664.88
2019-05-16T13:47:50.092Z,101660.87
2019-05-16T13:50:22.942Z,101660.87
2019-05-16T13:52:58.391Z,101657.33
2019-05-16T13:55:30.660Z,101656.91
2019-05-16T13:58:03.889Z,101660.02
2019-05-16T14:00:37.660Z,101645.10
2019-05-16T14:03:10.792Z,101640.80
2019-05-16T14:05:43.749Z,101638.88
2019-05-16T14:08:17.094Z,101626.95
2019-05-16T14:10:49.605Z,101614.25
2019-05-16T14:13:21.900Z,101614.58
2019-05-16T14:15:54.208Z,101608.55
2019-05-16T14:18:27.266Z,101604.40
2019-05-16T14:20:59.635Z,101609.89
2019-05-16T14:23:31.917Z,101593.88
2019-05-16T14:26:06.894Z,101590.89
2019-05-16T14:28:38.188Z,101581.15
2019-05-16T14:31:10.526Z,101593.52
2019-05-16T14:33:42.727Z,101588.12
2019-05-16T14:36:15.029Z,101593.19
2019-05-16T14:38:47.247Z,101590.47
2019-05-16T14:41:19.359Z,101585.66
2019-05-16T14:43:51.639Z,101581.73
2019-05-16T14:46:23.920Z,101582.05
2019-05-16T14:48:56.163Z,101572.54
2019-05-16T14:51:31.829Z,101568.95
2019-05-16T14:54:02.884Z,101567.36
2019-05-16T14:56:35.136Z,101568.25
2019-05-16T14:59:08.241Z,101559.03
2019-05-16T15:01:41.792Z,101555.70
2019-05-16T15:04:14.069Z,101560.83
2019-05-16T15:06:47.037Z,101562.34
2019-05-16T15:09:20.640Z,101556.59
2019-05-16T15:11:52.903Z,101545.14
2019-05-16T15:14:27.839Z,101539.70
2019-05-16T15:16:59.278Z,101535.36
2019-05-16T15:19:31.597Z,101535.73
2019-05-16T15:22:03.827Z,101524.93
2019-05-16T15:24:37.040Z,101513.57
2019-05-16T15:27:09.644Z,101513.57
2019-05-16T15:29:42.281Z,101508.70
2019-05-16T15:32:14.523Z,101506.49
2019-05-16T15:34:47.978Z,101499.05
2019-05-16T15:37:20.416Z,101506.38
2019-05-16T15:39:54.312Z,101508.70
2019-05-16T15:42:27.775Z,101504.35
2019-05-16T15:45:00.543Z,101507.13
2019-05-16T15:47:33.310Z,101499.73
2019-05-16T15:50:08.019Z,101497.52
2019-05-16T15:52:40.261Z,101494.86
2019-05-16T15:55:12.647Z,101491.38
2019-05-16T15:57:47.677Z,101490.91
2019-05-16T16:00:20.281Z,101490.91
2019-05-16T16:02:52.561Z,101470.28
2019-05-16T16:05:26.665Z,101479.61
2019-05-16T16:07:59.124Z,101479.61
2019-05-16T16:10:31.378Z,101472.98
2019-05-16T16:13:03.614Z,101473.04
2019-05-16T16:15:49.886Z,101477.45
2019-05-16T16:18:09.941Z,101469.94
2019-05-16T16:20:42.178Z,101458.48
2019-05-16T16:23:14.392Z,101453.60
2019-05-16T16:25:50.803Z,101455.36
2019-05-16T16:28:20.722Z,101446.52
2019-05-16T16:30:52.956Z,101453.17
2019-05-16T16:33:29.755Z,101454.50
2019-05-16T16:36:01.284Z,101454.48
2019-05-16T16:38:33.812Z,101442.58
2019-05-16T16:41:08.048Z,101444.80
2019-05-16T16:43:40.095Z,101442.58
2019-05-16T16:46:13.797Z,101450.95
2019-05-16T16:48:46.104Z,101442.13
2019-05-16T16:51:18.397Z,101435.03
2019-05-16T16:53:50.951Z,101431.00
2019-05-16T16:56:23.277Z,101434.13
2019-05-16T16:58:55.661Z,101422.23
2019-05-16T17:01:27.907Z,101427.68
2019-05-16T17:04:01.280Z,101412.92
2019-05-16T17:06:33.582Z,101417.80
2019-05-16T17:09:07.504Z,101412.91
2019-05-16T17:11:40.586Z,101421.20
2019-05-16T17:14:13.459Z,101413.52
2019-05-16T17:16:47.427Z,101409.74
2019-05-16T17:19:19.836Z,101403.16
2019-05-16T17:22:06.355Z,101400.79
2019-05-16T17:24:27.390Z,101400.61
2019-05-16T17:26:59.903Z,101394.34
2019-05-16T17:29:32.181Z,101385.30
2019-05-16T17:32:07.056Z,101391.03
2019-05-16T17:34:38.523Z,101393.63
2019-05-16T17:37:11.026Z,101389.94
2019-05-16T17:39:43.380Z,101387.32
2019-05-16T17:42:16.601Z,101390.12
2019-05-16T17:44:49.390Z,101383.87
2019-05-16T17:47:21.778Z,101384.08
2019-05-16T17:49:54.209Z,101379.11
2019-05-16T17:52:27.310Z,101393.02
2019-05-16T17:55:00.929Z,101380.65
2019-05-16T17:57:33.496Z,101386.25
2019-05-16T18:00:07.108Z,101370.45
2019-05-16T18:02:39.804Z,101377.02
2019-05-16T18:05:12.079Z,101372.61
2019-05-16T18:07:44.324Z,101372.13
2019-05-16T18:10:16.694Z,101359.37
2019-05-16T18:12:49.016Z,101370.19
2019-05-16T18:15:21.221Z,101363.77
2019-05-16T18:17:53.473Z,101372.05
2019-05-16T18:20:26.591Z,101369.36
2019-05-16T18:22:59.036Z,101369.22
2019-05-16T18:25:31.292Z,101355.05
2019-05-16T18:28:03.683Z,101359.30
2019-05-16T18:30:36.592Z,101352.86
2019-05-16T18:33:09.196Z,101355.83
2019-05-16T18:35:41.840Z,101353.98
2019-05-16T18:38:14.098Z,101356.00
2019-05-16T18:40:47.308Z,101354.47
2019-05-16T18:43:21.505Z,101351.76
2019-05-16T18:45:53.862Z,101349.31
2019-05-16T18:48:27.236Z,101345.64
2019-05-16T18:50:59.735Z,101359.92
2019-05-16T18:53:32.205Z,101341.66
2019-05-16T18:56:04.419Z,101349.13
2019-05-16T18:58:37.229Z,101342.51
2019-05-16T19:01:09.580Z,101346.08
2019-05-16T19:03:41.927Z,101340.89
2019-05-16T19:06:27.719Z,101338.41
2019-05-16T19:09:02.741Z,101329.60
2019-05-16T19:11:36.726Z,101338.73
2019-05-16T19:14:09.073Z,101333.38
2019-05-16T19:16:41.323Z,101340.64
2019-05-16T19:19:13.556Z,101331.44
2019-05-16T19:21:45.861Z,101335.69
2019-05-16T19:24:18.246Z,101331.90
2019-05-16T19:26:50.596Z,101332.55
2019-05-16T19:29:22.895Z,101331.59
2019-05-16T19:31:57.113Z,101321.73
2019-05-16T19:34:29.100Z,101323.76
2019-05-16T19:37:01.636Z,101321.48
2019-05-16T19:39:33.905Z,101341.62
2019-05-16T19:42:06.642Z,101335.86
2019-05-16T19:44:38.857Z,101333.64
2019-05-16T19:47:11.122Z,101340.49
2019-05-16T19:49:43.366Z,101338.23
2019-05-16T19:52:16.407Z,101340.86
2019-05-16T19:54:49.147Z,101342.59
2019-05-16T19:57:21.495Z,101344.20
2019-05-16T19:59:53.781Z,101344.30
2019-05-16T20:02:27.364Z,101340.28
2019-05-16T20:05:01.137Z,101338.58
2019-05-16T20:07:33.496Z,101344.17
2019-05-16T20:10:08.960Z,101340.75
2019-05-16T20:12:41.143Z,101339.02
2019-05-16T20:15:13.442Z,101331.77
2019-05-16T20:17:58.254Z,101340.59
2019-05-16T20:20:19.933Z,101338.92
2019-05-16T20:22:52.126Z,101330.36
2019-05-16T20:25:26.818Z,101333.40
2019-05-16T20:27:59.069Z,101323.73
2019-05-16T20:30:31.333Z,101322.73
2019-05-16T20:33:03.572Z,101315.63
2019-05-16T20:35:37.471Z,101323.06
2019-05-16T20:38:09.777Z,101315.91
2019-05-16T20:40:42.087Z,101312.14
2019-05-16T20:43:16.687Z,101316.36
2019-05-16T20:45:48.296Z,101311.59
2019-05-16T20:48:20.600Z,101312.50
2019-05-16T20:50:52.830Z,101307.33
2019-05-16T20:53:27.124Z,101309.45
2019-05-16T20:55:59.352Z,101306.34
2019-05-16T20:58:31.586Z,101301.37
2019-05-16T21:01:03.828Z,101301.03
2019-05-16T21:03:37.829Z,101299.72
2019-05-16T21:06:11.269Z,101294.90
2019-05-16T21:08:43.514Z,101297.03
2019-05-16T21:11:17.179Z,101296.97
2019-05-16T21:13:49.600Z,101296.48
2019-05-16T21:16:21.895Z,101293.32
2019-05-16T21:18:54.177Z,101290.30
2019-05-16T21:21:27.425Z,101276.08
2019-05-16T21:23:59.872Z,101279.47
2019-05-16T21:26:32.195Z,101277.25
2019-05-16T21:29:04.573Z,101281.11
2019-05-16T21:31:36.956Z,101277.72
2019-05-16T21:34:09.421Z,101273.48
2019-05-16T21:36:41.711Z,101273.13
2019-05-16T21:39:14.024Z,101265.06
2019-05-16T21:41:47.256Z,101265.66
2019-05-16T21:44:19.629Z,101258.62
2019-05-16T21:46:53.499Z,101256.91
2019-05-16T21:49:27.577Z,101248.56
2019-05-16T21:52:00.100Z,101249.09
2019-05-16T21:54:32.506Z,101242.73
2019-05-16T21:57:06.385Z,101239.70
2019-05-16T21:59:38.546Z,101232.68
2019-05-16T22:02:10.789Z,101233.61
2019-05-16T22:04:43.138Z,101228.02
2019-05-16T22:07:16.595Z,101229.28
2019-05-16T22:09:49.345Z,101227.31
2019-05-16T22:12:22.672Z,101223.61
2019-05-16T22:14:57.226Z,101219.69
2019-05-16T22:17:30.211Z,101208.86
2019-05-16T22:20:02.782Z,101204.09
2019-05-16T22:22:38.107Z,101202.91
2019-05-16T22:25:10.618Z,101195.52
2019-05-16T22:27:42.867Z,101191.75
2019-05-16T22:30:16.485Z,101183.42
2019-05-16T22:32:48.935Z,101185.63
2019-05-16T22:35:21.198Z,101174.73
2019-05-16T22:37:56.491Z,101175.03
2019-05-16T22:40:27.421Z,101176.17
2019-05-16T22:42:59.825Z,101175.93
2019-05-16T22:45:32.084Z,101168.43
2019-05-16T22:48:06.783Z,101168.48
2019-05-16T22:50:38.310Z,101165.92
2019-05-16T22:53:10.846Z,101164.33
2019-05-16T22:55:43.098Z,101162.77
2019-05-16T22:58:16.396Z,101159.68
2019-05-16T23:00:48.739Z,101156.16
2019-05-16T23:03:21.007Z,101147.53
2019-05-16T23:05:53.232Z,101148.48
2019-05-16T23:08:27.204Z,101146.64
2019-05-16T23:10:59.461Z,101147.00
2019-05-16T23:13:31.895Z,101144.97
2019-05-16T23:16:03.932Z,101143.41
2019-05-16T23:18:37.516Z,101144.67
2019-05-16T23:21:10.006Z,101140.31
2019-05-16T23:23:42.350Z,101139.88
2019-05-16T23:26:16.617Z,101141.56
2019-05-16T23:28:50.839Z,101135.01
2019-05-16T23:31:23.123Z,101134.07
2019-05-16T23:33:56.478Z,101129.90
2019-05-16T23:36:28.998Z,101123.96
2019-05-16T23:39:01.250Z,101122.67
2019-05-16T23:41:36.760Z,101120.09
2019-05-16T23:44:08.762Z,101117.77
2019-05-16T23:46:41.060Z,101118.61
2019-05-16T23:49:13.278Z,101113.06
2019-05-16T23:51:47.283Z,101118.89
2019-05-16T23:54:20.022Z,101111.11
2019-05-16T23:56:52.262Z,101115.93
2019-05-16T23:59:24.524Z,101106.40
